Lothian, MD

9:23 AM EDT on March 28, 2015 (GMT -0400)
Boones Estates | | Change Station
CLOSE
Current Station
Personal Weather Station
Location: Lothian, MD
Elevation: 118 ft
Nearby Weather Stations

Elev 118 ft 38.81 °N, 76.68 °W | Updated 4 minutes ago

Partly Cloudy
Partly Cloudy
36.0 °F
Feels Like 36 °F
N
0.0
Wind Variable Wind from East
Gusts 0.0 mph

Today
High -- | Low -- °F
--% Chance of Precip.
Yesterday
High -- | Low -- °F
Precip. -- in
6:57 AM 7:26 PM
Waxing Gibbous, 62% visible
Pressure 29.99 in
Visibility 10.0 miles
Clouds Clear
Windchill 36 °F
Dew Point 20 °F
Humidity 51%
Rainfall 0.07 in
Snow Depth Not available.
UV 2 out of 12
Pollen 9.10 out of 12
Air Quality Not available.
Flu Activity Not available.
METAR KADW 281258Z AUTO 30019G24KT 10SM CLR 00/M12 A2996 RMK AO2 SLP154 T10021124 $

More Conditions Fewer Conditions

Pressure 29.99 in
Visibility 10.0 miles
Clouds Clear
Windchill 36 °F
Dew Point 20 °F
Humidity 51%
Rainfall 0.07 in
Snow Depth Not available.
UV 2 out of 12
Pollen 9.10 out of 12
Air Quality Not available.
Flu Activity Not available.
METAR KADW 281258Z AUTO 30019G24KT 10SM CLR 00/M12 A2996 RMK AO2 SLP154 T10021124 $

More Conditions Fewer Conditions

Nowcast | as of 8:05 am EDT on March 28, 2015

Expect occasional snow flurries or a few brief periods of light snow to linger across northeast Maryland through the mid morning hours. The ground may be locally whitened in spots from this snowfall. Temperatures will be near 30 degrees through this time...so some slippery patches will be possible.

×

10-Day Weather Forecast

Almanac

Astronomy

Mar. 28, 2015 Rise Set
Actual Time
Civil Twilight
Nautical Twilight
Astronomical Twilight
Moon
Length of Visible Light
Length of Day
Tomorrow will be .
, % of the Moon is Illuminated

Today's Extremes

State Highs State Lows

Community

WunderPhotos

Upload Photos

1,808,972 photos uploaded!

WunderBlogs® & News

Nearby

Air Quality

  Air Quality AQ Index Pollutant
Not available.

Snow Depth

Station Depth Elevation

Earthquake Activity

City Distance Mag. Time & Date
Minimum magnitude displayed is 2.5.

Coastal Water Temperatures

Place Temperature

Stations

Nearby Weather Stations

Station Location Temp. Windchill Dew Point Humidity Wind Precip. Elev Updated Type